sensor_id;sensor_type;location;lat;lon;timestamp;P1;durP1;ratioP1;P2;durP2;ratioP2
21168;SDS011;10742;51.816;8.662;2023-12-04T00:01:04;28.47;;;9.47;;
21168;SDS011;10742;51.816;8.662;2023-12-04T00:04:25;24.07;;;9.10;;
21168;SDS011;10742;51.816;8.662;2023-12-04T00:07:46;30.47;;;10.30;;
21168;SDS011;10742;51.816;8.662;2023-12-04T00:11:08;24.70;;;9.77;;
21168;SDS011;10742;51.816;8.662;2023-12-04T00:14:29;26.37;;;9.13;;
21168;SDS011;10742;51.816;8.662;2023-12-04T00:17:50;26.40;;;9.37;;
21168;SDS011;10742;51.816;8.662;2023-12-04T00:21:12;27.60;;;9.87;;
21168;SDS011;10742;51.816;8.662;2023-12-04T00:24:33;25.40;;;9.57;;
21168;SDS011;10742;51.816;8.662;2023-12-04T00:27:54;27.63;;;10.67;;
21168;SDS011;10742;51.816;8.662;2023-12-04T00:31:15;25.93;;;9.80;;
21168;SDS011;10742;51.816;8.662;2023-12-04T00:34:37;24.70;;;9.37;;
21168;SDS011;10742;51.816;8.662;2023-12-04T00:37:58;25.97;;;9.77;;
21168;SDS011;10742;51.816;8.662;2023-12-04T00:41:19;26.87;;;10.47;;
21168;SDS011;10742;51.816;8.662;2023-12-04T00:44:40;24.07;;;9.60;;
21168;SDS011;10742;51.816;8.662;2023-12-04T00:48:02;22.60;;;8.57;;
21168;SDS011;10742;51.816;8.662;2023-12-04T00:51:23;27.03;;;9.67;;
21168;SDS011;10742;51.816;8.662;2023-12-04T00:54:44;24.40;;;8.97;;
21168;SDS011;10742;51.816;8.662;2023-12-04T00:58:05;24.33;;;9.27;;
21168;SDS011;10742;51.816;8.662;2023-12-04T01:01:26;25.87;;;9.57;;
21168;SDS011;10742;51.816;8.662;2023-12-04T01:04:48;25.43;;;9.77;;
21168;SDS011;10742;51.816;8.662;2023-12-04T01:08:09;24.97;;;9.67;;
21168;SDS011;10742;51.816;8.662;2023-12-04T01:11:30;24.07;;;9.17;;
21168;SDS011;10742;51.816;8.662;2023-12-04T01:14:52;26.40;;;9.90;;
21168;SDS011;10742;51.816;8.662;2023-12-04T01:18:13;27.20;;;9.60;;
21168;SDS011;10742;51.816;8.662;2023-12-04T01:21:34;27.03;;;9.97;;
21168;SDS011;10742;51.816;8.662;2023-12-04T01:24:55;25.13;;;9.43;;
21168;SDS011;10742;51.816;8.662;2023-12-04T01:28:17;24.13;;;8.60;;
21168;SDS011;10742;51.816;8.662;2023-12-04T01:31:38;25.57;;;9.23;;
21168;SDS011;10742;51.816;8.662;2023-12-04T01:34:59;22.47;;;8.80;;
21168;SDS011;10742;51.816;8.662;2023-12-04T01:38:20;25.67;;;9.73;;
21168;SDS011;10742;51.816;8.662;2023-12-04T01:41:41;22.33;;;8.97;;
21168;SDS011;10742;51.816;8.662;2023-12-04T01:45:02;24.77;;;9.13;;
21168;SDS011;10742;51.816;8.662;2023-12-04T01:48:23;25.63;;;9.20;;
21168;SDS011;10742;51.816;8.662;2023-12-04T01:51:46;23.63;;;9.00;;
21168;SDS011;10742;51.816;8.662;2023-12-04T01:55:08;24.97;;;9.30;;
21168;SDS011;10742;51.816;8.662;2023-12-04T01:58:31;23.70;;;9.03;;
21168;SDS011;10742;51.816;8.662;2023-12-04T02:01:52;23.37;;;9.37;;
21168;SDS011;10742;51.816;8.662;2023-12-04T02:05:14;24.80;;;9.40;;
21168;SDS011;10742;51.816;8.662;2023-12-04T02:08:35;24.30;;;8.87;;
21168;SDS011;10742;51.816;8.662;2023-12-04T02:11:56;26.20;;;9.43;;
21168;SDS011;10742;51.816;8.662;2023-12-04T02:15:19;26.47;;;9.67;;
21168;SDS011;10742;51.816;8.662;2023-12-04T02:18:41;23.77;;;9.03;;
21168;SDS011;10742;51.816;8.662;2023-12-04T02:22:02;26.17;;;9.53;;
21168;SDS011;10742;51.816;8.662;2023-12-04T02:25:23;24.63;;;9.10;;
21168;SDS011;10742;51.816;8.662;2023-12-04T02:28:46;23.53;;;8.73;;
21168;SDS011;10742;51.816;8.662;2023-12-04T02:32:17;24.33;;;8.83;;
21168;SDS011;10742;51.816;8.662;2023-12-04T02:35:40;23.00;;;8.50;;
21168;SDS011;10742;51.816;8.662;2023-12-04T02:39:03;25.40;;;9.03;;
21168;SDS011;10742;51.816;8.662;2023-12-04T02:42:25;22.40;;;8.47;;
21168;SDS011;10742;51.816;8.662;2023-12-04T02:45:46;23.33;;;8.30;;
21168;SDS011;10742;51.816;8.662;2023-12-04T02:49:07;25.13;;;9.33;;
21168;SDS011;10742;51.816;8.662;2023-12-04T02:52:28;25.23;;;8.77;;
21168;SDS011;10742;51.816;8.662;2023-12-04T02:55:49;24.13;;;8.83;;
21168;SDS011;10742;51.816;8.662;2023-12-04T02:59:10;25.63;;;8.93;;
21168;SDS011;10742;51.816;8.662;2023-12-04T03:02:31;23.90;;;9.03;;
21168;SDS011;10742;51.816;8.662;2023-12-04T03:05:52;22.70;;;8.40;;
21168;SDS011;10742;51.816;8.662;2023-12-04T03:09:13;24.20;;;9.33;;
21168;SDS011;10742;51.816;8.662;2023-12-04T03:12:34;23.83;;;8.90;;
21168;SDS011;10742;51.816;8.662;2023-12-04T03:15:58;21.83;;;8.40;;
21168;SDS011;10742;51.816;8.662;2023-12-04T03:19:19;21.67;;;8.17;;
21168;SDS011;10742;51.816;8.662;2023-12-04T03:22:40;23.27;;;8.80;;
21168;SDS011;10742;51.816;8.662;2023-12-04T03:26:01;21.80;;;8.20;;
21168;SDS011;10742;51.816;8.662;2023-12-04T03:29:23;22.17;;;8.27;;
21168;SDS011;10742;51.816;8.662;2023-12-04T03:32:44;24.63;;;8.37;;
21168;SDS011;10742;51.816;8.662;2023-12-04T03:36:05;23.17;;;8.20;;
21168;SDS011;10742;51.816;8.662;2023-12-04T03:39:27;22.67;;;8.33;;
21168;SDS011;10742;51.816;8.662;2023-12-04T03:42:48;21.73;;;7.43;;
21168;SDS011;10742;51.816;8.662;2023-12-04T03:46:08;23.13;;;8.63;;
21168;SDS011;10742;51.816;8.662;2023-12-04T03:49:29;20.80;;;7.63;;
21168;SDS011;10742;51.816;8.662;2023-12-04T03:52:51;22.07;;;7.33;;
21168;SDS011;10742;51.816;8.662;2023-12-04T03:56:11;20.40;;;7.33;;
21168;SDS011;10742;51.816;8.662;2023-12-04T03:59:33;23.80;;;8.37;;
21168;SDS011;10742;51.816;8.662;2023-12-04T04:02:54;23.40;;;8.07;;
21168;SDS011;10742;51.816;8.662;2023-12-04T04:06:15;21.80;;;8.00;;
21168;SDS011;10742;51.816;8.662;2023-12-04T04:09:37;19.30;;;7.50;;
21168;SDS011;10742;51.816;8.662;2023-12-04T04:12:58;20.33;;;7.47;;
21168;SDS011;10742;51.816;8.662;2023-12-04T04:16:19;21.27;;;7.30;;
21168;SDS011;10742;51.816;8.662;2023-12-04T04:19:40;21.47;;;7.90;;
21168;SDS011;10742;51.816;8.662;2023-12-04T04:23:02;21.43;;;7.87;;
21168;SDS011;10742;51.816;8.662;2023-12-04T04:26:23;20.03;;;7.47;;
21168;SDS011;10742;51.816;8.662;2023-12-04T04:29:44;23.70;;;8.10;;
21168;SDS011;10742;51.816;8.662;2023-12-04T04:33:05;18.87;;;7.27;;
21168;SDS011;10742;51.816;8.662;2023-12-04T04:36:26;22.20;;;7.60;;
21168;SDS011;10742;51.816;8.662;2023-12-04T04:39:47;22.67;;;7.73;;
21168;SDS011;10742;51.816;8.662;2023-12-04T04:43:09;21.90;;;7.27;;
21168;SDS011;10742;51.816;8.662;2023-12-04T04:46:31;19.43;;;7.17;;
21168;SDS011;10742;51.816;8.662;2023-12-04T04:49:52;20.83;;;6.90;;
21168;SDS011;10742;51.816;8.662;2023-12-04T04:53:15;19.43;;;6.97;;
21168;SDS011;10742;51.816;8.662;2023-12-04T04:56:36;22.33;;;7.20;;
21168;SDS011;10742;51.816;8.662;2023-12-04T04:59:57;20.40;;;7.20;;
21168;SDS011;10742;51.816;8.662;2023-12-04T05:03:18;19.77;;;7.43;;
21168;SDS011;10742;51.816;8.662;2023-12-04T05:06:39;17.27;;;6.47;;
21168;SDS011;10742;51.816;8.662;2023-12-04T05:10:01;22.33;;;7.60;;
21168;SDS011;10742;51.816;8.662;2023-12-04T05:13:23;20.27;;;7.40;;
21168;SDS011;10742;51.816;8.662;2023-12-04T05:16:44;20.83;;;7.73;;
21168;SDS011;10742;51.816;8.662;2023-12-04T05:20:05;20.87;;;6.97;;
21168;SDS011;10742;51.816;8.662;2023-12-04T05:23:28;20.57;;;7.90;;
21168;SDS011;10742;51.816;8.662;2023-12-04T05:26:49;22.30;;;7.67;;
21168;SDS011;10742;51.816;8.662;2023-12-04T05:30:10;22.90;;;6.87;;
21168;SDS011;10742;51.816;8.662;2023-12-04T05:33:31;21.83;;;8.37;;
21168;SDS011;10742;51.816;8.662;2023-12-04T05:36:53;19.63;;;7.40;;
21168;SDS011;10742;51.816;8.662;2023-12-04T05:40:14;21.43;;;7.70;;
21168;SDS011;10742;51.816;8.662;2023-12-04T05:43:36;19.40;;;7.07;;
21168;SDS011;10742;51.816;8.662;2023-12-04T05:46:56;19.57;;;7.77;;
21168;SDS011;10742;51.816;8.662;2023-12-04T05:50:17;22.50;;;7.57;;
21168;SDS011;10742;51.816;8.662;2023-12-04T05:53:38;19.70;;;7.47;;
21168;SDS011;10742;51.816;8.662;2023-12-04T05:57:00;19.57;;;7.30;;
21168;SDS011;10742;51.816;8.662;2023-12-04T06:00:21;20.87;;;7.47;;
21168;SDS011;10742;51.816;8.662;2023-12-04T06:03:44;22.70;;;8.23;;
21168;SDS011;10742;51.816;8.662;2023-12-04T06:07:05;20.77;;;7.77;;
21168;SDS011;10742;51.816;8.662;2023-12-04T06:10:27;22.87;;;7.87;;
21168;SDS011;10742;51.816;8.662;2023-12-04T06:13:48;19.07;;;7.13;;
21168;SDS011;10742;51.816;8.662;2023-12-04T06:17:09;20.27;;;7.57;;
21168;SDS011;10742;51.816;8.662;2023-12-04T06:20:30;20.20;;;7.37;;
21168;SDS011;10742;51.816;8.662;2023-12-04T06:23:52;19.17;;;7.33;;
21168;SDS011;10742;51.816;8.662;2023-12-04T06:27:14;20.30;;;7.13;;
21168;SDS011;10742;51.816;8.662;2023-12-04T06:30:38;18.67;;;7.13;;
21168;SDS011;10742;51.816;8.662;2023-12-04T06:33:59;23.80;;;6.90;;
21168;SDS011;10742;51.816;8.662;2023-12-04T06:37:21;20.70;;;6.87;;
21168;SDS011;10742;51.816;8.662;2023-12-04T06:40:43;22.63;;;7.47;;
21168;SDS011;10742;51.816;8.662;2023-12-04T06:44:04;18.67;;;6.60;;
21168;SDS011;10742;51.816;8.662;2023-12-04T06:47:26;18.40;;;7.40;;
21168;SDS011;10742;51.816;8.662;2023-12-04T06:50:49;20.30;;;7.87;;
21168;SDS011;10742;51.816;8.662;2023-12-04T06:54:10;17.20;;;6.60;;
21168;SDS011;10742;51.816;8.662;2023-12-04T06:57:32;19.03;;;6.87;;
21168;SDS011;10742;51.816;8.662;2023-12-04T07:00:53;18.33;;;6.60;;
21168;SDS011;10742;51.816;8.662;2023-12-04T07:04:15;18.17;;;6.37;;
21168;SDS011;10742;51.816;8.662;2023-12-04T07:07:41;15.90;;;6.03;;
21168;SDS011;10742;51.816;8.662;2023-12-04T07:11:02;17.30;;;6.47;;
21168;SDS011;10742;51.816;8.662;2023-12-04T07:14:24;18.97;;;6.67;;
21168;SDS011;10742;51.816;8.662;2023-12-04T07:17:45;17.00;;;6.70;;
21168;SDS011;10742;51.816;8.662;2023-12-04T07:21:06;13.53;;;5.57;;
21168;SDS011;10742;51.816;8.662;2023-12-04T07:24:28;18.47;;;6.27;;
21168;SDS011;10742;51.816;8.662;2023-12-04T07:27:49;17.67;;;5.93;;
21168;SDS011;10742;51.816;8.662;2023-12-04T07:31:10;14.53;;;6.00;;
21168;SDS011;10742;51.816;8.662;2023-12-04T07:34:32;20.83;;;6.33;;
21168;SDS011;10742;51.816;8.662;2023-12-04T07:37:53;17.33;;;6.87;;
21168;SDS011;10742;51.816;8.662;2023-12-04T07:41:14;17.33;;;6.40;;
21168;SDS011;10742;51.816;8.662;2023-12-04T07:44:36;19.07;;;6.80;;
21168;SDS011;10742;51.816;8.662;2023-12-04T07:47:57;18.87;;;7.37;;
21168;SDS011;10742;51.816;8.662;2023-12-04T07:51:18;18.77;;;6.97;;
21168;SDS011;10742;51.816;8.662;2023-12-04T07:54:39;16.87;;;6.53;;
21168;SDS011;10742;51.816;8.662;2023-12-04T07:58:00;18.60;;;6.80;;
21168;SDS011;10742;51.816;8.662;2023-12-04T08:01:23;20.13;;;7.60;;
21168;SDS011;10742;51.816;8.662;2023-12-04T08:04:44;17.83;;;6.50;;
21168;SDS011;10742;51.816;8.662;2023-12-04T08:08:05;19.20;;;7.00;;
21168;SDS011;10742;51.816;8.662;2023-12-04T08:11:26;19.40;;;7.50;;
21168;SDS011;10742;51.816;8.662;2023-12-04T08:14:47;15.80;;;6.00;;
21168;SDS011;10742;51.816;8.662;2023-12-04T08:18:08;18.20;;;6.33;;
21168;SDS011;10742;51.816;8.662;2023-12-04T08:21:30;17.37;;;6.63;;
21168;SDS011;10742;51.816;8.662;2023-12-04T08:24:53;18.20;;;7.03;;
21168;SDS011;10742;51.816;8.662;2023-12-04T08:28:14;19.07;;;6.93;;
21168;SDS011;10742;51.816;8.662;2023-12-04T08:31:36;20.00;;;6.77;;
21168;SDS011;10742;51.816;8.662;2023-12-04T08:34:57;17.50;;;6.57;;
21168;SDS011;10742;51.816;8.662;2023-12-04T08:38:18;19.47;;;6.97;;
21168;SDS011;10742;51.816;8.662;2023-12-04T08:41:39;15.07;;;6.20;;
21168;SDS011;10742;51.816;8.662;2023-12-04T08:45:03;19.40;;;6.87;;
21168;SDS011;10742;51.816;8.662;2023-12-04T08:48:26;16.03;;;6.40;;
21168;SDS011;10742;51.816;8.662;2023-12-04T08:51:47;17.60;;;6.27;;
21168;SDS011;10742;51.816;8.662;2023-12-04T08:55:09;22.13;;;6.70;;
21168;SDS011;10742;51.816;8.662;2023-12-04T08:58:31;16.87;;;6.37;;
21168;SDS011;10742;51.816;8.662;2023-12-04T09:01:52;18.87;;;6.93;;
21168;SDS011;10742;51.816;8.662;2023-12-04T09:05:16;17.50;;;6.80;;
21168;SDS011;10742;51.816;8.662;2023-12-04T09:08:38;18.50;;;6.83;;
21168;SDS011;10742;51.816;8.662;2023-12-04T09:11:59;16.90;;;6.87;;
21168;SDS011;10742;51.816;8.662;2023-12-04T09:15:20;17.73;;;6.97;;
21168;SDS011;10742;51.816;8.662;2023-12-04T09:18:41;17.83;;;7.10;;
21168;SDS011;10742;51.816;8.662;2023-12-04T09:22:02;21.40;;;7.37;;
21168;SDS011;10742;51.816;8.662;2023-12-04T09:25:27;19.07;;;6.97;;
21168;SDS011;10742;51.816;8.662;2023-12-04T09:28:48;19.00;;;6.83;;
21168;SDS011;10742;51.816;8.662;2023-12-04T09:32:09;19.60;;;7.10;;
21168;SDS011;10742;51.816;8.662;2023-12-04T09:35:30;17.53;;;6.67;;
21168;SDS011;10742;51.816;8.662;2023-12-04T09:38:52;18.47;;;7.07;;
21168;SDS011;10742;51.816;8.662;2023-12-04T09:42:13;19.70;;;6.80;;
21168;SDS011;10742;51.816;8.662;2023-12-04T09:45:35;19.67;;;7.30;;
21168;SDS011;10742;51.816;8.662;2023-12-04T09:48:59;20.97;;;6.87;;
21168;SDS011;10742;51.816;8.662;2023-12-04T09:52:20;17.83;;;7.03;;
21168;SDS011;10742;51.816;8.662;2023-12-04T09:55:43;17.93;;;6.70;;
21168;SDS011;10742;51.816;8.662;2023-12-04T09:59:07;19.90;;;7.60;;
21168;SDS011;10742;51.816;8.662;2023-12-04T10:02:30;21.27;;;8.23;;
21168;SDS011;10742;51.816;8.662;2023-12-04T10:05:53;19.57;;;7.60;;
21168;SDS011;10742;51.816;8.662;2023-12-04T10:09:16;21.37;;;7.60;;
21168;SDS011;10742;51.816;8.662;2023-12-04T10:12:38;20.10;;;7.60;;
21168;SDS011;10742;51.816;8.662;2023-12-04T10:15:59;21.67;;;7.33;;
21168;SDS011;10742;51.816;8.662;2023-12-04T10:19:21;22.20;;;7.90;;
21168;SDS011;10742;51.816;8.662;2023-12-04T10:23:02;18.63;;;7.23;;
21168;SDS011;10742;51.816;8.662;2023-12-04T10:26:23;22.77;;;7.77;;
21168;SDS011;10742;51.816;8.662;2023-12-04T10:29:45;20.73;;;7.63;;
21168;SDS011;10742;51.816;8.662;2023-12-04T10:33:08;19.80;;;7.60;;
21168;SDS011;10742;51.816;8.662;2023-12-04T10:36:29;20.50;;;7.53;;
21168;SDS011;10742;51.816;8.662;2023-12-04T10:39:51;19.43;;;8.00;;
21168;SDS011;10742;51.816;8.662;2023-12-04T10:43:15;22.43;;;7.87;;
21168;SDS011;10742;51.816;8.662;2023-12-04T10:46:41;21.60;;;7.80;;
21168;SDS011;10742;51.816;8.662;2023-12-04T10:50:03;24.97;;;8.70;;
21168;SDS011;10742;51.816;8.662;2023-12-04T10:53:27;22.23;;;8.40;;
21168;SDS011;10742;51.816;8.662;2023-12-04T10:56:48;18.40;;;7.47;;
21168;SDS011;10742;51.816;8.662;2023-12-04T11:00:12;20.53;;;8.03;;
21168;SDS011;10742;51.816;8.662;2023-12-04T11:03:50;17.70;;;6.80;;
21168;SDS011;10742;51.816;8.662;2023-12-04T11:07:17;17.83;;;7.10;;
21168;SDS011;10742;51.816;8.662;2023-12-04T11:11:01;19.83;;;7.53;;
21168;SDS011;10742;51.816;8.662;2023-12-04T11:14:25;17.57;;;6.13;;
21168;SDS011;10742;51.816;8.662;2023-12-04T11:17:55;17.17;;;6.30;;
21168;SDS011;10742;51.816;8.662;2023-12-04T11:21:21;16.63;;;6.10;;
21168;SDS011;10742;51.816;8.662;2023-12-04T11:24:42;15.13;;;6.17;;
21168;SDS011;10742;51.816;8.662;2023-12-04T11:28:03;17.17;;;6.63;;
21168;SDS011;10742;51.816;8.662;2023-12-04T11:31:25;14.80;;;6.07;;
21168;SDS011;10742;51.816;8.662;2023-12-04T11:34:47;18.93;;;6.10;;
21168;SDS011;10742;51.816;8.662;2023-12-04T11:38:12;16.13;;;6.20;;
21168;SDS011;10742;51.816;8.662;2023-12-04T11:41:34;19.47;;;6.80;;
21168;SDS011;10742;51.816;8.662;2023-12-04T11:44:59;15.60;;;6.27;;
21168;SDS011;10742;51.816;8.662;2023-12-04T11:48:23;14.60;;;6.03;;
21168;SDS011;10742;51.816;8.662;2023-12-04T11:51:45;15.33;;;6.37;;
21168;SDS011;10742;51.816;8.662;2023-12-04T11:55:11;15.00;;;5.77;;
21168;SDS011;10742;51.816;8.662;2023-12-04T11:58:41;15.40;;;6.10;;
21168;SDS011;10742;51.816;8.662;2023-12-04T12:02:06;16.10;;;6.40;;
21168;SDS011;10742;51.816;8.662;2023-12-04T12:05:32;13.83;;;5.67;;
21168;SDS011;10742;51.816;8.662;2023-12-04T12:08:55;14.70;;;5.57;;
21168;SDS011;10742;51.816;8.662;2023-12-04T12:12:17;15.27;;;6.00;;
21168;SDS011;10742;51.816;8.662;2023-12-04T12:15:38;16.00;;;6.13;;
21168;SDS011;10742;51.816;8.662;2023-12-04T12:19:00;14.17;;;5.73;;
21168;SDS011;10742;51.816;8.662;2023-12-04T12:22:22;15.57;;;6.10;;
21168;SDS011;10742;51.816;8.662;2023-12-04T12:25:43;15.70;;;6.27;;
21168;SDS011;10742;51.816;8.662;2023-12-04T12:29:05;13.00;;;5.37;;
21168;SDS011;10742;51.816;8.662;2023-12-04T12:32:27;14.23;;;5.80;;
21168;SDS011;10742;51.816;8.662;2023-12-04T12:35:50;17.77;;;6.17;;
21168;SDS011;10742;51.816;8.662;2023-12-04T12:39:13;15.67;;;5.63;;
21168;SDS011;10742;51.816;8.662;2023-12-04T12:42:35;14.27;;;5.67;;
21168;SDS011;10742;51.816;8.662;2023-12-04T12:46:01;15.60;;;6.00;;
21168;SDS011;10742;51.816;8.662;2023-12-04T12:49:26;15.17;;;5.70;;
21168;SDS011;10742;51.816;8.662;2023-12-04T12:52:48;16.67;;;5.77;;
21168;SDS011;10742;51.816;8.662;2023-12-04T12:56:10;14.17;;;5.33;;
21168;SDS011;10742;51.816;8.662;2023-12-04T12:59:31;15.90;;;6.07;;
21168;SDS011;10742;51.816;8.662;2023-12-04T13:02:53;16.57;;;5.87;;
21168;SDS011;10742;51.816;8.662;2023-12-04T13:06:14;21.43;;;7.50;;
21168;SDS011;10742;51.816;8.662;2023-12-04T13:09:35;17.50;;;6.00;;
21168;SDS011;10742;51.816;8.662;2023-12-04T13:12:57;29.10;;;9.10;;
21168;SDS011;10742;51.816;8.662;2023-12-04T13:16:20;16.40;;;6.73;;
21168;SDS011;10742;51.816;8.662;2023-12-04T13:19:41;17.13;;;5.57;;
21168;SDS011;10742;51.816;8.662;2023-12-04T13:23:03;15.03;;;5.60;;
21168;SDS011;10742;51.816;8.662;2023-12-04T13:26:24;15.60;;;5.50;;
21168;SDS011;10742;51.816;8.662;2023-12-04T13:29:45;16.47;;;5.97;;
21168;SDS011;10742;51.816;8.662;2023-12-04T13:33:10;16.43;;;5.47;;
21168;SDS011;10742;51.816;8.662;2023-12-04T13:36:33;15.67;;;5.97;;
21168;SDS011;10742;51.816;8.662;2023-12-04T13:39:55;16.97;;;6.33;;
21168;SDS011;10742;51.816;8.662;2023-12-04T13:43:19;18.07;;;6.13;;
21168;SDS011;10742;51.816;8.662;2023-12-04T13:46:59;14.83;;;5.40;;
21168;SDS011;10742;51.816;8.662;2023-12-04T13:50:20;12.80;;;5.80;;
21168;SDS011;10742;51.816;8.662;2023-12-04T13:53:41;17.50;;;5.80;;
21168;SDS011;10742;51.816;8.662;2023-12-04T13:57:05;16.03;;;6.00;;
21168;SDS011;10742;51.816;8.662;2023-12-04T14:00:27;16.60;;;6.00;;
21168;SDS011;10742;51.816;8.662;2023-12-04T14:03:49;18.53;;;6.43;;
21168;SDS011;10742;51.816;8.662;2023-12-04T14:07:09;17.10;;;5.63;;
21168;SDS011;10742;51.816;8.662;2023-12-04T14:10:32;18.27;;;5.97;;
21168;SDS011;10742;51.816;8.662;2023-12-04T14:13:54;19.33;;;5.83;;
21168;SDS011;10742;51.816;8.662;2023-12-04T14:17:15;15.63;;;6.40;;
21168;SDS011;10742;51.816;8.662;2023-12-04T14:20:37;15.33;;;5.87;;
21168;SDS011;10742;51.816;8.662;2023-12-04T14:23:58;18.33;;;6.70;;
21168;SDS011;10742;51.816;8.662;2023-12-04T14:27:19;18.33;;;6.87;;
21168;SDS011;10742;51.816;8.662;2023-12-04T14:30:41;13.70;;;5.83;;
21168;SDS011;10742;51.816;8.662;2023-12-04T14:34:02;14.60;;;6.10;;
21168;SDS011;10742;51.816;8.662;2023-12-04T14:37:24;18.33;;;6.57;;
21168;SDS011;10742;51.816;8.662;2023-12-04T14:40:45;19.10;;;6.67;;
21168;SDS011;10742;51.816;8.662;2023-12-04T14:44:06;13.57;;;5.63;;
21168;SDS011;10742;51.816;8.662;2023-12-04T14:47:27;12.87;;;5.70;;
21168;SDS011;10742;51.816;8.662;2023-12-04T14:50:48;18.70;;;6.40;;
21168;SDS011;10742;51.816;8.662;2023-12-04T14:54:09;14.90;;;5.97;;
21168;SDS011;10742;51.816;8.662;2023-12-04T14:57:57;13.50;;;5.53;;
21168;SDS011;10742;51.816;8.662;2023-12-04T15:01:41;15.03;;;5.33;;
21168;SDS011;10742;51.816;8.662;2023-12-04T15:05:25;13.90;;;5.47;;
21168;SDS011;10742;51.816;8.662;2023-12-04T15:09:04;13.20;;;5.17;;
21168;SDS011;10742;51.816;8.662;2023-12-04T15:12:44;14.97;;;5.43;;
21168;SDS011;10742;51.816;8.662;2023-12-04T15:16:28;11.70;;;5.03;;
21168;SDS011;10742;51.816;8.662;2023-12-04T15:20:11;14.73;;;5.23;;
21168;SDS011;10742;51.816;8.662;2023-12-04T15:23:32;13.37;;;5.33;;
21168;SDS011;10742;51.816;8.662;2023-12-04T15:26:52;14.70;;;5.70;;
21168;SDS011;10742;51.816;8.662;2023-12-04T15:30:13;13.10;;;5.53;;
21168;SDS011;10742;51.816;8.662;2023-12-04T15:33:35;12.07;;;4.90;;
21168;SDS011;10742;51.816;8.662;2023-12-04T15:36:56;16.13;;;5.80;;
21168;SDS011;10742;51.816;8.662;2023-12-04T15:40:17;14.60;;;5.60;;
21168;SDS011;10742;51.816;8.662;2023-12-04T15:43:38;12.23;;;4.90;;
21168;SDS011;10742;51.816;8.662;2023-12-04T15:46:59;14.07;;;5.27;;
21168;SDS011;10742;51.816;8.662;2023-12-04T15:50:21;12.60;;;5.03;;
21168;SDS011;10742;51.816;8.662;2023-12-04T15:53:42;14.00;;;4.80;;
21168;SDS011;10742;51.816;8.662;2023-12-04T15:57:04;14.10;;;5.13;;
21168;SDS011;10742;51.816;8.662;2023-12-04T16:00:26;12.07;;;5.10;;
21168;SDS011;10742;51.816;8.662;2023-12-04T16:03:47;14.93;;;5.40;;
21168;SDS011;10742;51.816;8.662;2023-12-04T16:07:08;12.57;;;5.10;;
21168;SDS011;10742;51.816;8.662;2023-12-04T16:10:29;11.17;;;5.33;;
21168;SDS011;10742;51.816;8.662;2023-12-04T16:13:50;13.87;;;5.33;;
21168;SDS011;10742;51.816;8.662;2023-12-04T16:17:12;16.07;;;5.97;;
21168;SDS011;10742;51.816;8.662;2023-12-04T16:20:33;14.77;;;5.73;;
21168;SDS011;10742;51.816;8.662;2023-12-04T16:23:54;12.37;;;5.03;;
21168;SDS011;10742;51.816;8.662;2023-12-04T16:27:18;12.47;;;5.33;;
21168;SDS011;10742;51.816;8.662;2023-12-04T16:30:39;13.77;;;5.77;;
21168;SDS011;10742;51.816;8.662;2023-12-04T16:34:00;17.50;;;6.60;;
21168;SDS011;10742;51.816;8.662;2023-12-04T16:37:21;12.50;;;4.90;;
21168;SDS011;10742;51.816;8.662;2023-12-04T16:40:43;13.27;;;5.60;;
21168;SDS011;10742;51.816;8.662;2023-12-04T16:44:04;15.10;;;5.10;;
21168;SDS011;10742;51.816;8.662;2023-12-04T16:47:26;10.90;;;4.70;;
21168;SDS011;10742;51.816;8.662;2023-12-04T16:50:49;13.00;;;5.10;;
21168;SDS011;10742;51.816;8.662;2023-12-04T16:54:10;11.60;;;5.00;;
21168;SDS011;10742;51.816;8.662;2023-12-04T16:57:32;14.87;;;5.27;;
21168;SDS011;10742;51.816;8.662;2023-12-04T17:00:54;14.00;;;5.50;;
21168;SDS011;10742;51.816;8.662;2023-12-04T17:04:15;12.63;;;5.27;;
21168;SDS011;10742;51.816;8.662;2023-12-04T17:07:36;13.17;;;4.90;;
21168;SDS011;10742;51.816;8.662;2023-12-04T17:10:57;14.27;;;4.90;;
21168;SDS011;10742;51.816;8.662;2023-12-04T17:14:18;13.00;;;5.13;;
21168;SDS011;10742;51.816;8.662;2023-12-04T17:17:40;16.23;;;5.67;;
21168;SDS011;10742;51.816;8.662;2023-12-04T17:21:02;11.90;;;5.20;;
21168;SDS011;10742;51.816;8.662;2023-12-04T17:24:24;11.70;;;5.10;;
21168;SDS011;10742;51.816;8.662;2023-12-04T17:27:46;10.57;;;4.47;;
21168;SDS011;10742;51.816;8.662;2023-12-04T17:31:10;14.77;;;5.47;;
21168;SDS011;10742;51.816;8.662;2023-12-04T17:34:31;11.07;;;4.80;;
21168;SDS011;10742;51.816;8.662;2023-12-04T17:37:53;16.67;;;5.63;;
21168;SDS011;10742;51.816;8.662;2023-12-04T17:41:14;16.47;;;5.80;;
21168;SDS011;10742;51.816;8.662;2023-12-04T17:44:36;17.13;;;5.47;;
21168;SDS011;10742;51.816;8.662;2023-12-04T17:47:59;23.23;;;7.23;;
21168;SDS011;10742;51.816;8.662;2023-12-04T17:51:20;18.40;;;6.53;;
21168;SDS011;10742;51.816;8.662;2023-12-04T17:54:42;13.33;;;5.50;;
21168;SDS011;10742;51.816;8.662;2023-12-04T17:58:02;14.10;;;5.43;;
21168;SDS011;10742;51.816;8.662;2023-12-04T18:01:24;13.30;;;5.33;;
21168;SDS011;10742;51.816;8.662;2023-12-04T18:04:45;13.73;;;5.17;;
21168;SDS011;10742;51.816;8.662;2023-12-04T18:08:09;20.93;;;7.23;;
21168;SDS011;10742;51.816;8.662;2023-12-04T18:11:31;15.40;;;5.43;;
21168;SDS011;10742;51.816;8.662;2023-12-04T18:14:52;21.57;;;7.07;;
21168;SDS011;10742;51.816;8.662;2023-12-04T18:18:13;18.70;;;6.50;;
21168;SDS011;10742;51.816;8.662;2023-12-04T18:21:34;24.43;;;8.40;;
21168;SDS011;10742;51.816;8.662;2023-12-04T18:24:55;17.10;;;6.20;;
21168;SDS011;10742;51.816;8.662;2023-12-04T18:28:16;19.60;;;7.20;;
21168;SDS011;10742;51.816;8.662;2023-12-04T18:31:38;24.77;;;8.77;;
21168;SDS011;10742;51.816;8.662;2023-12-04T18:34:59;31.30;;;11.33;;
21168;SDS011;10742;51.816;8.662;2023-12-04T18:38:27;17.73;;;6.47;;
21168;SDS011;10742;51.816;8.662;2023-12-04T18:41:52;19.63;;;6.97;;
21168;SDS011;10742;51.816;8.662;2023-12-04T18:45:14;14.67;;;6.40;;
21168;SDS011;10742;51.816;8.662;2023-12-04T18:48:36;26.33;;;9.07;;
21168;SDS011;10742;51.816;8.662;2023-12-04T18:51:59;17.43;;;6.53;;
21168;SDS011;10742;51.816;8.662;2023-12-04T18:55:20;16.20;;;6.27;;
21168;SDS011;10742;51.816;8.662;2023-12-04T18:58:41;17.57;;;6.43;;
21168;SDS011;10742;51.816;8.662;2023-12-04T19:02:03;18.03;;;6.27;;
21168;SDS011;10742;51.816;8.662;2023-12-04T19:05:25;17.33;;;6.30;;
21168;SDS011;10742;51.816;8.662;2023-12-04T19:08:50;19.20;;;6.80;;
21168;SDS011;10742;51.816;8.662;2023-12-04T19:12:12;22.33;;;7.83;;
21168;SDS011;10742;51.816;8.662;2023-12-04T19:15:34;17.90;;;6.63;;
21168;SDS011;10742;51.816;8.662;2023-12-04T19:18:56;14.93;;;6.43;;
21168;SDS011;10742;51.816;8.662;2023-12-04T19:22:17;15.20;;;6.03;;
21168;SDS011;10742;51.816;8.662;2023-12-04T19:25:38;14.87;;;6.03;;
21168;SDS011;10742;51.816;8.662;2023-12-04T19:29:03;18.00;;;6.10;;
21168;SDS011;10742;51.816;8.662;2023-12-04T19:32:24;16.40;;;6.03;;
21168;SDS011;10742;51.816;8.662;2023-12-04T19:35:46;13.70;;;5.20;;
21168;SDS011;10742;51.816;8.662;2023-12-04T19:39:07;16.63;;;6.20;;
21168;SDS011;10742;51.816;8.662;2023-12-04T19:42:28;14.03;;;5.57;;
21168;SDS011;10742;51.816;8.662;2023-12-04T19:45:49;18.20;;;5.77;;
21168;SDS011;10742;51.816;8.662;2023-12-04T19:49:11;15.97;;;6.00;;
21168;SDS011;10742;51.816;8.662;2023-12-04T19:52:32;17.57;;;6.37;;
21168;SDS011;10742;51.816;8.662;2023-12-04T19:55:53;15.27;;;5.90;;
21168;SDS011;10742;51.816;8.662;2023-12-04T19:59:14;13.63;;;5.93;;